Time;durP1;ratioP1;P1;durP2;ratioP2;P2;SDS_P1;SDS_P2;PMS_P1;PMS_P2;Temp;Humidity;BMP_temperature;BMP_pressure;BME280_temperature;BME280_humidity;BME280_pressure;Samples;Min_cycle;Max_cycle;Signal;HPM_P1;HPM_P2
2022/05/27 00:00:57;;;;;;;0.95;0.60;;;19.00;81.10;;;;;;5123347;27;45396;-64
2022/05/27 00:03:24;;;;;;;1.90;0.65;;;19.00;82.50;;;;;;5125321;27;46287;-64
2022/05/27 00:05:51;;;;;;;2.28;0.77;;;19.00;81.90;;;;;;5123316;27;46850;-64
2022/05/27 00:08:18;;;;;;;1.88;0.80;;;19.10;81.60;;;;;;5123210;27;45382;-64
2022/05/27 00:10:45;;;;;;;1.17;0.70;;;19.10;81.00;;;;;;5121786;27;45224;-64
2022/05/27 00:13:12;;;;;;;1.65;0.85;;;19.10;81.50;;;;;;5121967;27;47413;-64
2022/05/27 00:15:39;;;;;;;2.00;0.65;;;19.10;82.50;;;;;;5118734;27;45293;-64
2022/05/27 00:18:08;;;;;;;2.83;0.93;;;19.20;80.80;;;;;;5126244;27;45392;-64
2022/05/27 00:20:35;;;;;;;1.73;0.70;;;19.10;81.00;;;;;;5123308;27;45350;-64
2022/05/27 00:23:02;;;;;;;2.55;0.77;;;19.10;81.30;;;;;;5116305;27;46547;-64
2022/05/27 00:25:29;;;;;;;1.60;0.60;;;19.10;81.10;;;;;;5122977;27;45329;-64
2022/05/27 00:27:56;;;;;;;3.20;0.85;;;19.20;80.60;;;;;;5123730;27;45250;-64
2022/05/27 00:30:22;;;;;;;1.17;0.50;;;19.00;81.00;;;;;;5126604;27;45709;-65
2022/05/27 00:32:49;;;;;;;3.08;0.95;;;19.20;81.30;;;;;;5128782;27;46264;-65
2022/05/27 00:35:18;;;;;;;4.30;0.75;;;19.00;81.00;;;;;;5129826;27;45251;-64
2022/05/27 00:37:45;;;;;;;0.77;0.60;;;19.00;81.90;;;;;;5129095;27;45189;-64
2022/05/27 00:40:13;;;;;;;3.95;0.90;;;19.00;81.30;;;;;;5127136;27;45417;-64
2022/05/27 00:42:40;;;;;;;2.25;0.68;;;19.00;82.00;;;;;;5127064;27;47786;-64
2022/05/27 00:45:13;;;;;;;1.60;0.60;;;19.00;80.80;;;;;;5129135;27;45150;-64
2022/05/27 00:47:40;;;;;;;1.52;0.57;;;19.00;81.90;;;;;;5127721;27;45520;-64
2022/05/27 00:50:11;;;;;;;4.93;0.75;;;19.00;81.50;;;;;;5128924;27;45218;-64
2022/05/27 00:52:42;;;;;;;2.25;0.60;;;19.10;81.70;;;;;;5126583;27;46286;-64
2022/05/27 00:55:13;;;;;;;2.67;0.98;;;19.10;80.70;;;;;;5125055;27;45206;-64
2022/05/27 00:57:45;;;;;;;1.30;0.50;;;19.00;81.40;;;;;;5124008;27;45293;-64
2022/05/27 01:00:16;;;;;;;6.55;0.80;;;19.10;81.40;;;;;;5126189;27;45157;-64
2022/05/27 01:02:43;;;;;;;3.90;0.85;;;19.10;81.40;;;;;;5128381;27;45555;-64
2022/05/27 01:05:13;;;;;;;5.65;0.60;;;19.00;81.70;;;;;;5127538;27;45159;-64
2022/05/27 01:07:41;;;;;;;3.35;0.90;;;18.90;83.40;;;;;;5129490;27;45583;-64
2022/05/27 01:10:12;;;;;;;3.78;0.80;;;19.00;82.40;;;;;;5129463;27;45346;-64
2022/05/27 01:12:56;;;;;;;3.13;0.80;;;18.90;83.00;;;;;;5125131;27;45551;-64
2022/05/27 01:15:35;;;;;;;3.38;0.90;;;18.90;83.60;;;;;;5120019;27;45700;-64
2022/05/27 01:18:20;;;;;;;4.50;0.77;;;18.90;83.70;;;;;;5127574;27;46719;-64
2022/05/27 01:20:56;;;;;;;4.82;0.95;;;18.90;84.30;;;;;;5129076;27;45419;-64
2022/05/27 01:23:55;;;;;;;4.40;0.80;;;18.80;84.20;;;;;;5120859;27;46516;-64
2022/05/27 01:26:45;;;;;;;2.30;0.70;;;18.80;84.30;;;;;;5125258;27;45333;-64
2022/05/27 01:29:43;;;;;;;3.53;0.90;;;18.80;84.50;;;;;;5125682;27;45389;-64
2022/05/27 01:32:14;;;;;;;4.18;0.73;;;18.80;84.20;;;;;;5125553;27;45223;-64
2022/05/27 01:34:53;;;;;;;1.70;0.80;;;18.80;84.60;;;;;;5126130;27;45219;-64
2022/05/27 01:37:28;;;;;;;3.80;0.93;;;18.80;84.00;;;;;;5126055;27;45837;-64
2022/05/27 01:40:02;;;;;;;2.25;0.88;;;18.70;83.80;;;;;;5123269;27;45431;-64
2022/05/27 01:42:36;;;;;;;3.42;0.80;;;18.70;84.90;;;;;;5120020;27;45147;-64
2022/05/27 01:45:08;;;;;;;2.70;0.90;;;18.80;83.70;;;;;;5127917;27;45289;-64
2022/05/27 01:47:40;;;;;;;2.33;0.73;;;18.80;83.00;;;;;;5120343;27;45438;-64
2022/05/27 01:50:11;;;;;;;2.47;0.60;;;18.80;84.20;;;;;;5124793;27;45575;-64
2022/05/27 01:52:43;;;;;;;2.60;0.68;;;18.90;83.60;;;;;;5125172;27;45299;-64
2022/05/27 01:55:14;;;;;;;4.07;0.90;;;18.90;83.50;;;;;;5115667;27;45266;-64
2022/05/27 01:57:46;;;;;;;1.38;0.90;;;18.90;83.30;;;;;;5119165;27;45114;-64
2022/05/27 02:00:19;;;;;;;4.22;0.90;;;19.00;82.60;;;;;;5122847;27;45222;-64
2022/05/27 02:02:51;;;;;;;5.35;1.00;;;19.00;82.50;;;;;;5124776;27;45439;-64
2022/05/27 02:05:22;;;;;;;2.00;0.82;;;18.90;83.00;;;;;;5126126;27;45423;-64
2022/05/27 02:07:53;;;;;;;2.45;1.00;;;18.90;82.10;;;;;;5127391;27;45345;-64
2022/05/27 02:10:26;;;;;;;5.55;1.00;;;19.00;83.80;;;;;;5119047;27;45238;-64
2022/05/27 02:12:58;;;;;;;3.35;1.33;;;18.90;84.10;;;;;;5124712;27;45410;-64
2022/05/27 02:15:32;;;;;;;1.65;1.10;;;19.00;83.50;;;;;;5120436;27;46267;-64
2022/05/27 02:18:05;;;;;;;2.28;1.10;;;18.80;84.40;;;;;;5126365;27;45317;-64
2022/05/27 02:20:35;;;;;;;4.55;1.00;;;18.70;84.90;;;;;;5125646;27;45322;-64
2022/05/27 02:23:06;;;;;;;4.80;1.38;;;18.70;85.40;;;;;;5127155;27;45358;-64
2022/05/27 02:25:36;;;;;;;4.32;1.17;;;18.70;85.00;;;;;;5129735;27;47429;-64
2022/05/27 02:28:09;;;;;;;2.20;1.15;;;18.70;85.80;;;;;;5119079;27;45290;-64
2022/05/27 02:30:40;;;;;;;3.42;1.00;;;18.80;85.70;;;;;;5124130;27;45557;-64
2022/05/27 02:36:00;;;;;;;3.03;1.20;;;19.00;85.10;;;;;;5129946;27;45570;-64
2022/05/27 02:38:27;;;;;;;2.47;1.35;;;18.80;85.70;;;;;;5124219;27;45386;-64
2022/05/27 02:41:01;;;;;;;3.13;1.40;;;18.90;86.40;;;;;;5120795;27;45192;-64
2022/05/27 02:43:40;;;;;;;4.32;1.30;;;18.90;86.40;;;;;;5123020;27;45560;-64
2022/05/27 02:46:21;;;;;;;1.95;1.05;;;18.90;86.40;;;;;;5120061;27;47907;-64
2022/05/27 02:48:56;;;;;;;4.40;1.50;;;18.90;86.30;;;;;;5122473;27;45436;-64
2022/05/27 02:51:28;;;;;;;5.53;1.30;;;18.90;85.80;;;;;;5127335;27;45308;-64
2022/05/27 02:54:04;;;;;;;4.03;1.10;;;18.90;86.60;;;;;;5123136;27;45499;-64
2022/05/27 02:56:38;;;;;;;3.22;1.27;;;19.00;86.00;;;;;;5118202;27;46431;-64
2022/05/27 02:59:09;;;;;;;2.55;1.00;;;18.90;85.50;;;;;;5125443;27;45299;-64
2022/05/27 03:01:35;;;;;;;3.88;1.00;;;18.80;87.40;;;;;;5126730;27;45485;-64
2022/05/27 03:04:04;;;;;;;5.55;1.20;;;18.90;85.80;;;;;;5124297;27;45550;-64
2022/05/27 03:06:42;;;;;;;2.92;1.05;;;18.90;85.90;;;;;;5124874;27;45509;-64
2022/05/27 03:09:17;;;;;;;2.60;1.00;;;18.80;86.30;;;;;;5123570;27;45512;-64
2022/05/27 03:12:05;;;;;;;4.22;1.00;;;18.80;86.70;;;;;;5123783;27;45415;-64
2022/05/27 03:14:51;;;;;;;1.83;1.00;;;18.70;86.80;;;;;;5127382;27;45293;-64
2022/05/27 03:17:31;;;;;;;2.67;1.08;;;18.70;87.70;;;;;;5124706;27;48031;-64
2022/05/27 03:20:09;;;;;;;3.28;1.08;;;18.80;87.40;;;;;;5117998;27;45295;-64
2022/05/27 03:22:52;;;;;;;2.95;1.10;;;18.80;87.00;;;;;;5121921;27;45117;-64
2022/05/27 03:25:24;;;;;;;3.08;1.23;;;18.80;87.30;;;;;;5127970;27;45235;-64
2022/05/27 03:28:01;;;;;;;4.57;1.10;;;18.70;87.90;;;;;;5126364;27;46152;-64
2022/05/27 03:30:31;;;;;;;3.80;1.38;;;18.80;87.90;;;;;;5119891;27;45285;-64
2022/05/27 03:33:04;;;;;;;1.80;0.90;;;18.60;88.30;;;;;;5124618;27;45236;-64
2022/05/27 03:35:37;;;;;;;2.90;1.35;;;18.60;89.10;;;;;;5127593;27;45204;-64
2022/05/27 03:38:14;;;;;;;3.88;1.13;;;18.70;89.00;;;;;;5126279;27;48110;-64
2022/05/27 03:40:44;;;;;;;3.85;1.10;;;18.70;89.20;;;;;;5116677;27;45232;-64
2022/05/27 03:43:12;;;;;;;4.60;1.10;;;18.80;89.20;;;;;;5121530;27;45671;-64
2022/05/27 03:45:50;;;;;;;3.20;1.10;;;18.80;88.80;;;;;;5112240;27;45232;-64
2022/05/27 03:48:18;;;;;;;4.53;1.17;;;18.80;89.30;;;;;;5123414;27;46609;-64
2022/05/27 03:50:48;;;;;;;3.03;1.08;;;18.80;89.40;;;;;;5126350;27;45354;-64
2022/05/27 03:53:15;;;;;;;4.40;1.30;;;18.80;89.70;;;;;;5105378;27;45195;-64
2022/05/27 03:55:44;;;;;;;1.48;1.00;;;18.80;89.50;;;;;;5115429;27;45276;-64
2022/05/27 03:58:14;;;;;;;2.63;1.20;;;18.70;90.00;;;;;;5126859;27;47928;-64
2022/05/27 04:00:41;;;;;;;3.33;1.13;;;18.80;90.30;;;;;;5128218;27;45460;-64
2022/05/27 04:03:09;;;;;;;4.07;1.13;;;18.80;90.20;;;;;;5131437;27;45151;-64
2022/05/27 04:05:35;;;;;;;3.75;1.30;;;18.80;90.10;;;;;;5126410;27;45275;-64
2022/05/27 04:08:04;;;;;;;3.55;1.30;;;18.80;90.20;;;;;;5127356;27;46512;-64
2022/05/27 04:10:30;;;;;;;2.80;1.27;;;18.70;90.20;;;;;;5119901;27;45308;-64
2022/05/27 04:12:57;;;;;;;1.98;1.08;;;18.80;90.50;;;;;;5119815;27;45168;-64
2022/05/27 04:17:59;;;;;;;1.52;0.90;;;18.70;90.80;;;;;;5125408;22;45391;-65
2022/05/27 04:20:26;;;;;;;3.10;1.25;;;18.70;90.80;;;;;;5105920;27;45624;-66
2022/05/27 04:22:55;;;;;;;2.58;1.00;;;18.70;91.00;;;;;;5110940;27;45541;-66
2022/05/27 04:25:23;;;;;;;4.18;1.00;;;18.60;91.50;;;;;;5110321;27;45444;-66
2022/05/27 04:27:51;;;;;;;1.52;0.90;;;18.70;91.40;;;;;;5109557;27;47950;-66
2022/05/27 04:30:18;;;;;;;3.78;1.10;;;18.60;91.40;;;;;;5108018;27;46390;-66
2022/05/27 04:32:45;;;;;;;2.22;1.20;;;18.60;91.70;;;;;;5108190;27;45591;-66
2022/05/27 04:35:12;;;;;;;3.05;1.02;;;18.60;91.80;;;;;;5109085;27;45078;-66
2022/05/27 04:37:39;;;;;;;3.33;1.00;;;18.70;91.50;;;;;;5108422;27;45464;-66
2022/05/27 04:40:08;;;;;;;3.15;1.30;;;18.60;91.90;;;;;;5109357;27;45237;-65
2022/05/27 04:42:36;;;;;;;3.00;1.20;;;18.60;92.30;;;;;;5110117;27;45353;-65
2022/05/27 04:45:03;;;;;;;2.47;1.08;;;18.70;92.20;;;;;;5107708;27;46239;-65
2022/05/27 04:47:30;;;;;;;3.80;1.42;;;18.70;92.40;;;;;;5107495;27;46159;-65
2022/05/27 04:49:58;;;;;;;1.45;1.08;;;18.60;92.60;;;;;;5107932;27;45193;-65
2022/05/27 04:52:27;;;;;;;2.72;1.33;;;18.70;92.50;;;;;;5108234;27;46097;-65
2022/05/27 04:54:56;;;;;;;6.30;1.25;;;18.60;92.80;;;;;;5106222;27;45471;-65
2022/05/27 04:57:25;;;;;;;3.70;1.20;;;18.60;93.00;;;;;;5108854;27;45246;-65
2022/05/27 04:59:54;;;;;;;3.80;1.40;;;18.60;93.60;;;;;;5106707;27;45242;-65
2022/05/27 05:02:23;;;;;;;3.38;1.40;;;18.60;93.30;;;;;;5108619;27;45338;-65
2022/05/27 05:04:51;;;;;;;3.22;1.40;;;18.60;93.60;;;;;;5108873;27;45215;-65
2022/05/27 05:07:21;;;;;;;2.30;1.38;;;18.50;93.90;;;;;;5105010;27;47265;-66
2022/05/27 05:09:47;;;;;;;4.13;1.88;;;18.30;94.20;;;;;;5103420;27;46415;-66
2022/05/27 05:12:15;;;;;;;3.75;1.58;;;18.40;94.60;;;;;;5107559;27;45262;-66
2022/05/27 05:14:42;;;;;;;3.33;1.35;;;18.50;94.70;;;;;;5109029;27;45540;-65
2022/05/27 05:17:10;;;;;;;2.63;1.20;;;18.60;94.70;;;;;;5104700;27;47419;-65
2022/05/27 05:19:37;;;;;;;3.28;1.00;;;18.60;94.70;;;;;;5107604;27;46738;-66
2022/05/27 05:22:04;;;;;;;1.95;0.82;;;18.70;94.40;;;;;;5106555;27;45326;-66
2022/05/27 05:24:31;;;;;;;1.65;1.02;;;18.80;94.50;;;;;;5107354;27;45332;-65
2022/05/27 05:26:59;;;;;;;0.90;0.63;;;18.80;94.30;;;;;;5108763;27;47104;-65
2022/05/27 05:29:26;;;;;;;1.60;0.80;;;18.80;94.30;;;;;;5107439;27;45321;-66
2022/05/27 05:31:52;;;;;;;1.00;0.65;;;18.80;94.20;;;;;;5108734;27;45931;-65
2022/05/27 05:34:21;;;;;;;1.17;0.70;;;18.90;94.20;;;;;;5102448;27;45299;-65
2022/05/27 05:36:47;;;;;;;1.63;0.70;;;18.90;93.70;;;;;;5105655;27;47060;-65
2022/05/27 05:39:14;;;;;;;1.63;0.80;;;18.90;94.30;;;;;;5106291;27;45238;-65
2022/05/27 05:41:42;;;;;;;2.92;0.90;;;18.80;94.30;;;;;;5107131;27;45179;-65
2022/05/27 05:44:10;;;;;;;1.38;0.60;;;18.80;94.40;;;;;;5107665;27;45145;-65
2022/05/27 05:46:39;;;;;;;1.60;1.08;;;18.90;94.30;;;;;;5105844;27;47126;-66
2022/05/27 05:49:06;;;;;;;1.30;0.70;;;18.80;94.50;;;;;;5103632;27;45140;-65
2022/05/27 05:51:35;;;;;;;1.70;0.70;;;18.80;94.10;;;;;;5107847;27;45328;-65
2022/05/27 05:54:02;;;;;;;3.13;1.05;;;18.70;94.40;;;;;;5105985;27;45311;-66
2022/05/27 05:56:31;;;;;;;3.00;1.20;;;18.50;95.10;;;;;;5106844;27;46928;-66
2022/05/27 05:58:58;;;;;;;0.80;0.63;;;18.40;95.30;;;;;;5105171;27;45219;-66
2022/05/27 06:01:25;;;;;;;1.30;0.60;;;18.40;95.50;;;;;;5104559;27;45430;-66
2022/05/27 06:03:51;;;;;;;1.63;0.60;;;18.50;95.40;;;;;;5109053;27;45381;-65
2022/05/27 06:06:18;;;;;;;1.98;0.50;;;18.60;95.20;;;;;;5105286;27;46630;-66
2022/05/27 06:08:47;;;;;;;1.00;0.60;;;18.40;95.30;;;;;;5101777;27;45629;-66
2022/05/27 06:11:13;;;;;;;2.15;0.70;;;18.30;95.10;;;;;;5103101;27;45431;-66
2022/05/27 06:13:40;;;;;;;1.40;0.50;;;18.40;95.30;;;;;;5107277;27;45713;-65
2022/05/27 06:16:09;;;;;;;2.20;0.90;;;18.30;95.60;;;;;;5106313;27;47527;-65
2022/05/27 06:18:36;;;;;;;4.20;0.63;;;18.20;95.30;;;;;;5105675;27;45201;-65
2022/05/27 06:21:03;;;;;;;2.75;0.90;;;18.20;95.70;;;;;;5103707;27;45268;-65
2022/05/27 06:23:30;;;;;;;1.92;0.98;;;18.30;95.70;;;;;;5107600;27;45373;-65
2022/05/27 06:26:01;;;;;;;2.65;0.82;;;18.40;95.40;;;;;;5099543;27;47082;-65
2022/05/27 06:36:44;;;;;;;2.97;0.70;;;18.40;95.40;;;;;;5107388;27;45346;-65
2022/05/27 06:39:12;;;;;;;3.60;1.10;;;18.50;95.00;;;;;;5103534;27;45235;-65
2022/05/27 06:41:40;;;;;;;2.80;0.90;;;18.60;95.00;;;;;;5107997;27;45390;-65
2022/05/27 06:44:08;;;;;;;2.72;0.90;;;18.60;95.20;;;;;;5105018;27;45321;-65
2022/05/27 06:46:36;;;;;;;2.30;0.90;;;18.50;95.20;;;;;;5105379;27;46268;-65
2022/05/27 06:49:03;;;;;;;1.38;0.70;;;18.40;95.30;;;;;;5099290;27;45591;-65
2022/05/27 06:51:31;;;;;;;3.90;0.82;;;18.30;95.60;;;;;;5105973;27;45235;-65
2022/05/27 06:53:58;;;;;;;2.17;0.75;;;18.30;95.50;;;;;;5104682;27;45279;-65
2022/05/27 06:56:25;;;;;;;1.33;0.70;;;18.50;95.40;;;;;;5101372;27;45401;-65
2022/05/27 06:58:53;;;;;;;1.95;0.85;;;18.50;95.20;;;;;;5105521;27;45194;-65
2022/05/27 07:01:20;;;;;;;2.40;0.80;;;18.60;95.30;;;;;;5107671;27;45305;-65
2022/05/27 07:03:47;;;;;;;2.63;0.80;;;18.60;95.30;;;;;;5105557;27;45380;-65
2022/05/27 07:06:14;;;;;;;1.77;0.68;;;18.70;95.20;;;;;;5101759;27;47925;-65
2022/05/27 07:08:41;;;;;;;1.92;0.82;;;18.60;95.20;;;;;;5103129;27;45262;-65
2022/05/27 07:11:08;;;;;;;2.75;0.80;;;18.60;95.20;;;;;;5105525;27;45799;-65
2022/05/27 07:13:35;;;;;;;4.35;0.95;;;18.70;95.20;;;;;;5106422;27;45173;-65
2022/05/27 07:16:05;;;;;;;4.40;1.00;;;18.70;95.40;;;;;;5103302;27;45472;-65
2022/05/27 07:18:31;;;;;;;1.42;0.75;;;18.70;95.40;;;;;;5101785;27;45528;-65
2022/05/27 07:21:02;;;;;;;3.30;0.95;;;18.80;95.30;;;;;;5101354;27;45203;-65
2022/05/27 07:23:30;;;;;;;5.00;1.10;;;18.80;95.50;;;;;;5106516;27;45132;-65
2022/05/27 07:25:57;;;;;;;3.10;1.00;;;18.90;95.50;;;;;;5103507;27;45420;-66
2022/05/27 07:28:24;;;;;;;3.55;0.80;;;18.80;95.20;;;;;;5104607;27;45525;-65
2022/05/27 07:30:53;;;;;;;3.33;1.00;;;18.90;95.30;;;;;;5101858;27;45275;-65
2022/05/27 07:33:22;;;;;;;2.57;1.00;;;19.00;94.90;;;;;;5105039;27;45631;-65
2022/05/27 07:35:49;;;;;;;3.40;1.20;;;19.00;94.80;;;;;;5110543;27;46309;-65
2022/05/27 07:38:17;;;;;;;2.45;1.02;;;18.90;94.60;;;;;;5110646;27;45457;-65
2022/05/27 07:40:44;;;;;;;3.63;1.30;;;18.90;94.70;;;;;;5106611;27;45462;-65
2022/05/27 07:43:12;;;;;;;5.18;1.50;;;18.90;95.00;;;;;;5106743;27;45468;-65
2022/05/27 07:45:41;;;;;;;4.05;1.33;;;18.90;95.00;;;;;;5108232;27;45482;-66
2022/05/27 07:48:09;;;;;;;4.53;1.75;;;18.70;95.40;;;;;;5107374;27;45162;-65
2022/05/27 07:50:38;;;;;;;3.85;1.58;;;18.50;95.80;;;;;;5105833;27;45452;-65
2022/05/27 07:53:05;;;;;;;5.38;1.75;;;18.40;96.30;;;;;;5105625;27;45409;-65
2022/05/27 07:55:32;;;;;;;4.32;1.42;;;18.30;97.20;;;;;;5108075;27;47357;-65
2022/05/27 07:57:59;;;;;;;5.65;1.60;;;18.30;97.70;;;;;;5104182;27;45393;-66
2022/05/27 08:00:28;;;;;;;5.10;1.65;;;18.50;97.00;;;;;;5105047;27;45291;-65
2022/05/27 08:02:55;;;;;;;5.30;1.83;;;18.60;97.00;;;;;;5104236;27;45356;-65
2022/05/27 08:05:24;;;;;;;2.72;1.50;;;18.60;96.80;;;;;;5100688;27;47199;-65
2022/05/27 08:07:55;;;;;;;4.90;1.65;;;18.80;96.40;;;;;;5106757;27;45527;-65
2022/05/27 08:10:24;;;;;;;6.70;2.10;;;18.90;96.20;;;;;;5109049;27;45167;-65
2022/05/27 08:12:51;;;;;;;6.88;1.80;;;18.90;96.20;;;;;;5108493;27;45287;-65
2022/05/27 08:15:19;;;;;;;5.68;2.17;;;19.00;96.40;;;;;;5110048;27;45479;-66
2022/05/27 08:17:45;;;;;;;2.97;1.50;;;19.00;96.20;;;;;;5110286;27;45215;-65
2022/05/27 08:20:17;;;;;;;6.47;2.03;;;18.90;96.20;;;;;;5108313;27;45281;-66
2022/05/27 08:22:43;;;;;;;3.15;1.50;;;18.80;96.70;;;;;;5107685;27;45517;-66
2022/05/27 08:25:12;;;;;;;3.47;1.85;;;18.90;96.40;;;;;;5112076;27;47418;-66
2022/05/27 08:27:39;;;;;;;6.57;1.98;;;18.80;95.90;;;;;;5120364;27;45241;-65
2022/05/27 08:30:09;;;;;;;3.72;1.77;;;18.60;96.10;;;;;;5108984;27;45339;-65
2022/05/27 08:32:35;;;;;;;5.22;1.92;;;18.60;95.70;;;;;;5122023;27;45492;-65
2022/05/27 08:38:01;;;;;;;4.40;1.95;;;18.60;95.30;;;;;;5111441;27;45224;-65
2022/05/27 08:40:39;;;;;;;7.78;1.90;;;18.70;95.60;;;;;;5106095;27;45235;-65
2022/05/27 08:43:15;;;;;;;6.28;1.80;;;18.60;94.70;;;;;;5109319;27;45217;-65
2022/05/27 08:45:52;;;;;;;8.50;1.95;;;18.70;94.70;;;;;;5131598;27;45161;-65
2022/05/27 08:48:20;;;;;;;8.05;2.15;;;18.80;94.40;;;;;;5114998;27;45183;-65
2022/05/27 08:50:52;;;;;;;4.25;1.60;;;18.80;93.70;;;;;;5109865;27;45243;-66
2022/05/27 08:53:27;;;;;;;5.18;2.00;;;18.90;94.30;;;;;;5110702;27;45160;-65
2022/05/27 09:01:37;;;;;;;6.45;1.60;;;18.90;93.00;;;;;;5116560;27;45273;-66
2022/05/27 09:04:10;;;;;;;7.13;1.95;;;18.90;92.50;;;;;;5100045;27;46098;-67
2022/05/27 09:06:44;;;;;;;5.30;1.80;;;19.00;92.50;;;;;;5105132;27;45516;-65
2022/05/27 09:09:17;;;;;;;3.72;1.40;;;19.00;91.90;;;;;;5106728;27;45173;-65
2022/05/27 09:12:00;;;;;;;7.55;2.00;;;19.00;92.00;;;;;;5110225;27;45232;-65
2022/05/27 09:14:31;;;;;;;7.65;1.80;;;19.00;91.30;;;;;;5123018;27;45467;-66
2022/05/27 09:17:01;;;;;;;2.97;1.25;;;19.10;91.00;;;;;;5120887;27;45997;-66
2022/05/27 09:19:42;;;;;;;6.63;1.60;;;19.00;90.70;;;;;;5108678;27;45230;-65
2022/05/27 09:22:17;;;;;;;7.38;1.65;;;19.00;90.60;;;;;;5106007;27;46173;-66
2022/05/27 09:24:56;;;;;;;5.18;1.40;;;18.90;91.30;;;;;;5110287;27;45274;-66
2022/05/27 09:27:29;;;;;;;10.15;2.10;;;19.00;91.70;;;;;;5108899;27;47292;-65
2022/05/27 09:30:00;;;;;;;7.72;1.90;;;19.00;89.40;;;;;;5107841;27;45284;-65
2022/05/27 09:32:34;;;;;;;4.75;1.60;;;18.90;90.40;;;;;;5110409;27;45334;-65
2022/05/27 09:35:07;;;;;;;9.38;1.73;;;19.10;91.10;;;;;;5109603;27;45348;-65
2022/05/27 09:37:38;;;;;;;7.15;1.70;;;19.20;90.70;;;;;;5108369;27;46092;-65
2022/05/27 09:40:13;;;;;;;5.07;1.40;;;19.20;90.80;;;;;;5106514;27;45268;-67
2022/05/27 09:42:45;;;;;;;5.80;1.70;;;19.20;88.50;;;;;;5110048;27;45214;-66
2022/05/27 09:45:12;;;;;;;2.17;1.15;;;19.20;89.00;;;;;;5108057;27;45355;-65
2022/05/27 09:47:41;;;;;;;4.70;1.60;;;19.30;89.10;;;;;;5109443;27;46482;-65
2022/05/27 09:50:25;;;;;;;3.30;1.60;;;19.30;88.70;;;;;;5116410;27;45219;-65
2022/05/27 09:52:56;;;;;;;3.88;1.45;;;19.30;87.40;;;;;;5110904;27;45216;-65
2022/05/27 09:55:27;;;;;;;4.05;1.25;;;19.50;89.90;;;;;;5104314;27;45275;-65
2022/05/27 09:57:59;;;;;;;5.25;1.60;;;19.60;87.10;;;;;;5108065;27;45205;-65
2022/05/27 10:00:42;;;;;;;3.15;1.75;;;19.50;87.30;;;;;;5107921;27;45247;-66
2022/05/27 10:03:32;;;;;;;6.15;1.88;;;19.50;89.00;;;;;;5104990;27;45271;-66
2022/05/27 10:06:01;;;;;;;6.53;1.80;;;19.50;86.00;;;;;;5098666;27;45525;-66
2022/05/27 10:08:31;;;;;;;4.47;1.45;;;19.60;84.70;;;;;;5108302;27;46550;-66
2022/05/27 10:11:13;;;;;;;5.85;1.42;;;19.50;83.80;;;;;;5109949;27;45219;-66
2022/05/27 10:13:42;;;;;;;3.97;1.70;;;19.50;85.00;;;;;;5097756;27;45361;-66
2022/05/27 10:16:13;;;;;;;6.75;2.00;;;19.50;86.40;;;;;;5109189;27;45454;-66
2022/05/27 10:18:42;;;;;;;4.35;2.03;;;19.60;84.50;;;;;;5108380;27;45354;-66
2022/05/27 10:21:14;;;;;;;4.93;1.60;;;19.70;85.80;;;;;;5107911;27;45136;-66
2022/05/27 10:23:42;;;;;;;5.93;2.40;;;19.60;83.60;;;;;;5108160;27;45245;-66
2022/05/27 10:26:25;;;;;;;3.80;1.45;;;19.60;82.20;;;;;;5109477;27;45180;-66
2022/05/27 10:29:00;;;;;;;3.22;1.30;;;19.80;84.90;;;;;;5105917;27;45631;-65
2022/05/27 10:31:27;;;;;;;6.57;1.63;;;19.90;84.00;;;;;;5107781;27;45884;-65
2022/05/27 10:33:54;;;;;;;6.75;1.77;;;19.70;82.60;;;;;;5107323;27;45266;-65
2022/05/27 10:36:49;;;;;;;7.70;1.90;;;19.50;84.70;;;;;;5109256;27;45232;-65
2022/05/27 10:39:22;;;;;;;7.85;2.05;;;19.50;84.80;;;;;;5105296;27;45243;-65
2022/05/27 10:42:06;;;;;;;6.55;1.88;;;19.40;84.80;;;;;;5109381;27;45199;-66
2022/05/27 10:44:45;;;;;;;6.85;1.60;;;19.30;83.40;;;;;;5108850;27;45147;-66
2022/05/27 10:47:23;;;;;;;9.13;1.63;;;19.30;85.30;;;;;;5108222;27;45362;-66
2022/05/27 10:50:11;;;;;;;4.78;1.45;;;19.30;85.50;;;;;;5107364;27;45257;-66
2022/05/27 10:52:55;;;;;;;5.95;1.92;;;19.30;87.00;;;;;;5109171;27;45180;-66
2022/05/27 10:55:30;;;;;;;6.85;1.83;;;19.30;85.20;;;;;;5104670;27;45223;-66
2022/05/27 11:04:07;;;;;;;3.60;1.17;;;19.50;86.90;;;;;;5098334;27;45405;-66
2022/05/27 11:06:50;;;;;;;6.90;1.52;;;19.70;84.80;;;;;;5099123;27;45180;-65
2022/05/27 11:09:27;;;;;;;5.35;1.23;;;19.80;83.80;;;;;;5100395;27;45510;-65
2022/05/27 11:12:01;;;;;;;6.15;1.65;;;19.80;82.60;;;;;;5103977;27;47909;-65
2022/05/27 11:17:39;;;;;;;5.50;1.60;;;19.90;81.20;;;;;;5095080;27;45199;-65
2022/05/27 11:20:43;;;;;;;9.73;1.83;;;19.80;78.90;;;;;;5094200;27;45413;-65
2022/05/27 11:23:37;;;;;;;3.88;1.40;;;19.90;79.80;;;;;;5056050;27;46202;-65
2022/05/27 11:26:12;;;;;;;3.17;1.20;;;19.90;79.90;;;;;;5101026;27;45287;-65
2022/05/27 11:29:03;;;;;;;6.63;1.90;;;19.80;80.20;;;;;;5099082;27;45383;-65
2022/05/27 11:31:43;;;;;;;4.40;1.35;;;19.90;79.80;;;;;;5086297;27;45241;-65
2022/05/27 11:34:22;;;;;;;8.93;1.83;;;19.80;78.00;;;;;;5098535;27;46201;-65
2022/05/27 11:37:32;;;;;;;6.30;1.63;;;19.70;80.40;;;;;;5102670;27;45329;-65
2022/05/27 11:40:14;;;;;;;7.95;1.55;;;19.50;79.70;;;;;;5076070;27;45369;-65
2022/05/27 11:42:59;;;;;;;5.40;1.60;;;19.50;80.00;;;;;;5106455;27;45232;-65
2022/05/27 11:45:28;;;;;;;4.28;1.50;;;19.60;76.30;;;;;;5101800;27;45413;-65
2022/05/27 11:48:05;;;;;;;5.97;1.33;;;19.60;77.50;;;;;;5102256;27;45626;-65
2022/05/27 11:51:00;;;;;;;6.40;1.20;;;19.70;75.20;;;;;;5105001;27;45159;-65
2022/05/27 11:53:46;;;;;;;6.70;1.20;;;19.80;78.00;;;;;;5107267;27;45160;-65
2022/05/27 11:56:17;;;;;;;2.20;1.25;;;19.80;75.70;;;;;;5102229;27;45454;-65
2022/05/27 11:58:53;;;;;;;2.67;1.40;;;19.80;74.90;;;;;;5102288;27;45261;-65
2022/05/27 12:01:31;;;;;;;3.25;1.10;;;19.80;75.00;;;;;;5102914;27;45238;-65
2022/05/27 12:04:05;;;;;;;2.88;1.05;;;19.90;71.40;;;;;;5106215;27;45329;-65
2022/05/27 12:06:38;;;;;;;4.68;1.30;;;19.80;74.50;;;;;;5102826;27;46467;-65
2022/05/27 12:09:10;;;;;;;4.22;1.30;;;19.80;72.70;;;;;;5104182;27;45392;-66
2022/05/27 12:11:41;;;;;;;3.97;1.40;;;19.80;74.90;;;;;;5098890;27;45163;-66
2022/05/27 12:14:14;;;;;;;3.55;1.17;;;19.90;72.60;;;;;;5102678;27;45377;-65
2022/05/27 12:16:48;;;;;;;7.45;1.35;;;19.90;72.50;;;;;;5105584;27;45352;-65
2022/05/27 12:19:18;;;;;;;6.28;1.50;;;19.90;72.10;;;;;;5101741;27;45283;-65
2022/05/27 12:21:48;;;;;;;6.05;1.40;;;19.90;71.50;;;;;;5109383;27;45214;-65
2022/05/27 12:24:21;;;;;;;6.00;1.20;;;19.90;73.80;;;;;;5106551;27;45199;-65
2022/05/27 12:26:52;;;;;;;5.05;1.27;;;19.90;72.20;;;;;;5107264;27;47210;-65
2022/05/27 12:29:21;;;;;;;2.55;1.00;;;20.00;73.40;;;;;;5107637;27;45340;-66
2022/05/27 12:31:49;;;;;;;5.70;1.70;;;20.00;72.70;;;;;;5108877;27;45246;-65
2022/05/27 12:34:35;;;;;;;4.47;1.20;;;20.10;70.00;;;;;;5106170;27;45321;-65
2022/05/27 12:37:18;;;;;;;4.57;1.10;;;20.10;70.70;;;;;;5107511;27;47425;-65
2022/05/27 12:39:48;;;;;;;5.00;1.38;;;20.00;68.00;;;;;;5109309;27;45343;-65
2022/05/27 12:42:20;;;;;;;3.80;1.00;;;20.00;70.60;;;;;;5106865;27;45361;-65
2022/05/27 12:44:49;;;;;;;7.30;1.65;;;20.00;68.50;;;;;;5107501;27;45259;-65
2022/05/27 12:47:19;;;;;;;6.10;1.70;;;20.00;69.50;;;;;;5109147;27;45242;-65
2022/05/27 12:49:49;;;;;;;6.00;1.35;;;20.00;69.10;;;;;;5106471;27;45178;-65
2022/05/27 12:52:45;;;;;;;5.15;1.20;;;20.00;67.70;;;;;;5100770;27;45204;-65
2022/05/27 12:55:14;;;;;;;5.15;1.20;;;20.00;68.10;;;;;;5104258;27;45383;-65
2022/05/27 13:00:59;;;;;;;7.00;1.55;;;19.90;70.30;;;;;;5050868;27;45420;-65
2022/05/27 13:03:48;;;;;;;3.80;1.20;;;20.00;68.20;;;;;;5106728;27;45580;-65
2022/05/27 13:06:33;;;;;;;7.68;1.95;;;19.90;66.80;;;;;;5106690;27;45350;-65
2022/05/27 13:09:04;;;;;;;6.88;1.35;;;19.90;67.30;;;;;;5106626;27;46026;-65
2022/05/27 13:11:46;;;;;;;6.15;1.70;;;19.90;69.60;;;;;;5107889;27;45306;-65
2022/05/27 13:14:19;;;;;;;4.25;1.27;;;20.00;69.40;;;;;;5105666;27;45325;-65
2022/05/27 13:16:52;;;;;;;4.80;1.08;;;20.10;68.00;;;;;;5107319;27;45377;-65
2022/05/27 13:19:28;;;;;;;5.45;1.20;;;20.20;67.80;;;;;;5106405;27;45536;-65
2022/05/27 13:21:57;;;;;;;6.25;1.17;;;20.20;66.50;;;;;;5107948;27;45238;-65
2022/05/27 13:24:32;;;;;;;5.55;1.40;;;20.20;65.10;;;;;;5105936;27;45559;-65
2022/05/27 13:27:09;;;;;;;2.90;1.25;;;20.00;67.10;;;;;;5108068;27;45366;-65
2022/05/27 13:29:45;;;;;;;4.53;1.33;;;20.10;67.80;;;;;;5103995;27;45339;-65
2022/05/27 13:32:17;;;;;;;4.53;1.38;;;20.10;65.20;;;;;;5104802;27;45439;-65
2022/05/27 13:34:50;;;;;;;8.93;1.48;;;20.10;67.70;;;;;;5106185;27;45184;-65
2022/05/27 13:37:23;;;;;;;4.93;1.35;;;20.00;66.30;;;;;;5108958;27;45428;-65
2022/05/27 13:39:55;;;;;;;4.35;1.13;;;20.10;66.30;;;;;;5109271;27;46262;-65
2022/05/27 13:42:34;;;;;;;5.60;1.55;;;20.10;65.70;;;;;;5107507;27;45229;-65
2022/05/27 13:45:08;;;;;;;5.63;1.77;;;20.10;65.00;;;;;;5109899;27;45558;-65
2022/05/27 13:47:41;;;;;;;7.13;1.55;;;20.20;66.20;;;;;;5109058;27;45363;-65